Time;durP1;ratioP1;P1;durP2;ratioP2;P2;SDS_P1;SDS_P2;PMS_P1;PMS_P2;Temp;Humidity;BMP_temperature;BMP_pressure;BME280_temperature;BME280_humidity;BME280_pressure;Samples;Min_cycle;Max_cycle;Signal;HPM_P1;HPM_P2
2023/07/17 00:00:19;;;;;;;;;5.67;1.33;;;;;-147.70;100.00;61350.09;5040070;28;46245;-78
2023/07/17 00:02:44;;;;;;;;;3.25;0.00;;;;;-147.70;100.00;61350.09;5039935;28;45481;-78
2023/07/17 00:05:10;;;;;;;;;2.50;1.75;;;;;-147.70;100.00;61350.09;5040372;28;45574;-77
2023/07/17 00:07:37;;;;;;;;;1.00;0.00;;;;;-147.70;100.00;61350.09;5041443;28;45408;-76
2023/07/17 00:10:03;;;;;;;;;0.50;0.00;;;;;-147.70;100.00;61350.09;5039848;28;46372;-78
2023/07/17 00:12:30;;;;;;;;;0.25;0.25;;;;;-147.70;100.00;61350.09;5039791;28;45256;-80
2023/07/17 00:14:55;;;;;;;;;4.00;2.00;;;;;-147.70;100.00;61350.09;5039900;28;45321;-75
2023/07/17 00:17:20;;;;;;;;;0.00;0.00;;;;;-147.70;100.00;61350.09;5043722;28;45453;-77
2023/07/17 00:19:54;;;;;;;;;1.00;1.00;;;;;-147.70;100.00;61350.09;5059649;28;45475;-77
2023/07/17 00:22:19;;;;;;;;;1.50;1.00;;;;;-147.70;100.00;61350.09;5059735;28;45376;-78
2023/07/17 00:24:45;;;;;;;;;1.00;1.00;;;;;-147.70;100.00;61350.09;5059881;28;45590;-77
2023/07/17 00:27:10;;;;;;;;;1.00;1.00;;;;;-147.70;100.00;61350.09;5060303;28;45427;-78
2023/07/17 00:29:35;;;;;;;;;1.00;1.00;;;;;-147.70;100.00;61350.09;5059580;28;45249;-78
2023/07/17 00:32:00;;;;;;;;;0.25;0.25;;;;;-147.70;100.00;61350.09;5059798;28;45447;-78
2023/07/17 00:34:26;;;;;;;;;2.00;0.50;;;;;-147.70;100.00;61350.09;5046616;28;45522;-78
2023/07/17 00:36:52;;;;;;;;;0.00;0.00;;;;;-147.70;100.00;61350.09;5039689;28;45578;-78
2023/07/17 00:39:23;;;;;;;;;1.75;1.00;;;;;-147.70;100.00;61350.09;5039259;28;46403;-79
2023/07/17 00:41:50;;;;;;;;;2.00;0.75;;;;;-147.70;100.00;61350.09;5039201;28;45244;-79
2023/07/17 00:44:16;;;;;;;;;4.00;1.00;;;;;-147.70;100.00;61350.09;5039503;28;45220;-79
2023/07/17 00:46:41;;;;;;;;;1.00;1.00;;;;;-147.70;100.00;61350.09;5039632;28;45408;-78
2023/07/17 00:49:08;;;;;;;;;0.50;0.50;;;;;-147.70;100.00;61350.09;5051580;28;47212;-78
2023/07/17 00:51:34;;;;;;;;;1.00;1.00;;;;;-147.70;100.00;61350.09;5059622;28;45514;-78
2023/07/17 00:54:00;;;;;;;;;2.50;1.00;;;;;-147.70;100.00;61350.09;5059460;28;45307;-77
2023/07/17 00:56:29;;;;;;;;;0.00;0.00;;;;;-147.70;100.00;61350.09;5059608;28;45281;-78
2023/07/17 00:58:56;;;;;;;;;0.00;0.00;;;;;-147.70;100.00;61350.09;5059325;28;45680;-79
2023/07/17 01:01:21;;;;;;;;;0.75;0.75;;;;;-147.70;100.00;61350.09;5059001;28;45408;-79
2023/07/17 01:03:47;;;;;;;;;1.50;1.50;;;;;-147.70;100.00;61350.09;5047123;28;45481;-78
2023/07/17 01:06:12;;;;;;;;;4.75;0.00;;;;;-147.70;100.00;61350.09;5039286;28;45277;-79
2023/07/17 01:08:38;;;;;;;;;0.25;0.25;;;;;-147.70;100.00;61350.09;5038940;28;45920;-77
2023/07/17 01:11:04;;;;;;;;;2.00;1.00;;;;;-147.70;100.00;61350.09;5039242;28;45264;-77
2023/07/17 01:13:29;;;;;;;;;1.50;1.00;;;;;-147.70;100.00;61350.09;5039061;28;45309;-78
2023/07/17 01:15:55;;;;;;;;;2.00;1.00;;;;;-147.70;100.00;61350.09;5038980;28;45701;-78
2023/07/17 01:18:20;;;;;;;;;1.25;1.25;;;;;-147.70;100.00;61350.09;5044101;28;46149;-78
2023/07/17 01:20:47;;;;;;;;;0.00;0.00;;;;;-147.70;100.00;61350.09;5058963;28;45304;-76
2023/07/17 01:23:12;;;;;;;;;2.25;1.00;;;;;-147.70;100.00;61350.09;5058894;28;45342;-75
2023/07/17 01:25:37;;;;;;;;;2.25;0.25;;;;;-147.70;100.00;61350.09;5057150;28;45336;-76
2023/07/17 01:28:03;;;;;;;;;1.50;1.50;;;;;-147.70;100.00;61350.09;5043624;28;45370;-78
2023/07/17 01:30:28;;;;;;;;;1.50;1.00;;;;;-147.70;100.00;61350.09;5057524;28;45545;-78
2023/07/17 01:32:53;;;;;;;;;2.25;1.00;;;;;-147.70;100.00;61350.09;5058554;28;45198;-77
2023/07/17 01:35:19;;;;;;;;;0.00;0.00;;;;;-147.70;100.00;61350.09;5059223;28;45362;-77
2023/07/17 01:37:44;;;;;;;;;2.00;1.00;;;;;-147.70;100.00;61350.09;5058535;28;45705;-75
2023/07/17 01:40:11;;;;;;;;;1.00;1.00;;;;;-147.70;100.00;61350.09;5058870;28;45352;-78
2023/07/17 01:42:37;;;;;;;;;3.00;1.75;;;;;-147.70;100.00;61350.09;5058425;28;45407;-76
2023/07/17 01:45:03;;;;;;;;;1.25;1.00;;;;;-147.70;100.00;61350.09;5057601;28;45352;-76
2023/07/17 01:47:29;;;;;;;;;1.50;1.50;;;;;-147.70;100.00;61350.09;5058400;28;46270;-78
2023/07/17 01:49:54;;;;;;;;;1.00;0.50;;;;;-147.70;100.00;61350.09;5057575;28;45392;-76
2023/07/17 01:52:20;;;;;;;;;1.00;1.00;;;;;-147.70;100.00;61350.09;5058487;28;45451;-75
2023/07/17 01:54:45;;;;;;;;;3.00;1.25;;;;;-147.70;100.00;61350.09;5058124;28;45351;-77
2023/07/17 01:57:10;;;;;;;;;1.00;1.00;;;;;-147.70;100.00;61350.09;5058251;28;46687;-76
2023/07/17 01:59:36;;;;;;;;;1.00;1.00;;;;;-147.70;100.00;61350.09;5058208;28;45274;-78
2023/07/17 02:02:01;;;;;;;;;1.00;1.00;;;;;-147.70;100.00;61350.09;5042837;28;45348;-77
2023/07/17 02:04:26;;;;;;;;;1.33;1.33;;;;;-147.70;100.00;61350.09;5038572;28;45271;-78
2023/07/17 02:06:52;;;;;;;;;1.00;1.00;;;;;-147.70;100.00;61350.09;5038058;28;45604;-78
2023/07/17 02:09:17;;;;;;;;;3.00;1.00;;;;;-147.70;100.00;61350.09;5038045;28;45631;-77
2023/07/17 02:11:43;;;;;;;;;2.33;2.00;;;;;-147.70;100.00;61350.09;5038173;28;45497;-76
2023/07/17 02:14:08;;;;;;;;;2.75;1.75;;;;;-147.70;100.00;61350.09;5037693;28;45366;-76
2023/07/17 02:16:34;;;;;;;;;2.00;2.00;;;;;-147.70;100.00;61350.09;5038846;28;46195;-75
2023/07/17 02:18:59;;;;;;;;;3.00;1.67;;;;;-147.70;100.00;61350.09;5037887;28;45367;-74
2023/07/17 02:21:24;;;;;;;;;1.00;1.00;;;;;-147.70;100.00;61350.09;5037867;28;45143;-76
2023/07/17 02:23:50;;;;;;;;;2.25;2.00;;;;;-147.70;100.00;61350.09;5038269;28;45299;-75
2023/07/17 02:26:15;;;;;;;;;4.75;2.50;;;;;-147.70;100.00;61350.09;5037916;28;45411;-76
2023/07/17 02:28:41;;;;;;;;;4.00;2.00;;;;;-147.70;100.00;61350.09;5037993;28;45346;-76
2023/07/17 02:31:06;;;;;;;;;2.00;2.00;;;;;-147.70;100.00;61350.09;5037966;28;45316;-76
2023/07/17 02:33:31;;;;;;;;;3.67;3.00;;;;;-147.70;100.00;61350.09;5037863;28;45523;-76
2023/07/17 02:35:56;;;;;;;;;3.50;2.00;;;;;-147.70;100.00;61350.09;5037606;28;45450;-76
2023/07/17 02:38:22;;;;;;;;;5.33;3.00;;;;;-147.70;100.00;61350.09;5037635;28;46101;-76
2023/07/17 02:40:47;;;;;;;;;3.25;2.00;;;;;-147.70;100.00;61350.09;5037938;28;45345;-77
2023/07/17 02:43:12;;;;;;;;;2.25;2.25;;;;;-147.70;100.00;61350.09;5037969;28;45263;-77
2023/07/17 02:45:38;;;;;;;;;3.50;2.50;;;;;-147.70;100.00;61350.09;5052846;28;45371;-77
2023/07/17 02:48:04;;;;;;;;;1.75;1.75;;;;;-147.70;100.00;61350.09;5057853;28;45466;-78
2023/07/17 02:50:29;;;;;;;;;3.33;2.67;;;;;-147.70;100.00;61350.09;5057767;28;45358;-78
2023/07/17 02:52:55;;;;;;;;;2.00;2.00;;;;;-147.70;100.00;61350.09;5056390;28;45408;-78
2023/07/17 02:55:24;;;;;;;;;2.67;2.67;;;;;-147.70;100.00;61350.09;5057500;28;45371;-76
2023/07/17 02:57:49;;;;;;;;;3.00;2.00;;;;;-147.70;100.00;61350.09;5057244;28;45384;-77
2023/07/17 03:00:15;;;;;;;;;4.00;2.67;;;;;-147.70;100.00;61350.09;5042560;28;45403;-75
2023/07/17 03:02:42;;;;;;;;;5.00;2.00;;;;;-147.70;100.00;61350.09;5037382;28;45385;-77
2023/07/17 03:05:08;;;;;;;;;3.00;3.00;;;;;-147.70;100.00;61350.09;5037363;28;45458;-76
2023/07/17 03:07:47;;;;;;;;;2.00;2.00;;;;;-147.70;100.00;61350.09;5054087;28;45357;-78
2023/07/17 03:10:13;;;;;;;;;8.33;3.67;;;;;-147.70;100.00;61350.09;5057368;28;45225;-77
2023/07/17 03:12:39;;;;;;;;;3.67;3.67;;;;;-147.70;100.00;61350.09;5057439;28;45543;-78
2023/07/17 03:15:05;;;;;;;;;2.33;2.33;;;;;-147.70;100.00;61350.09;5057177;28;45486;-78
2023/07/17 03:17:32;;;;;;;;;5.00;3.25;;;;;-147.70;100.00;61350.09;5057075;28;45364;-79
2023/07/17 03:19:58;;;;;;;;;3.00;3.00;;;;;-147.70;100.00;61350.09;5057025;28;45329;-77
2023/07/17 03:22:23;;;;;;;;;4.33;3.00;;;;;-147.70;100.00;61350.09;5057286;28;45417;-76
2023/07/17 03:24:49;;;;;;;;;5.67;2.00;;;;;-147.70;100.00;61350.09;5057673;28;45427;-78
2023/07/17 03:27:15;;;;;;;;;3.00;3.00;;;;;-147.70;100.00;61350.09;5060839;28;45377;-76
2023/07/17 03:29:40;;;;;;;;;4.00;3.00;;;;;-147.70;100.00;61350.09;5060791;28;45387;-78
2023/07/17 03:32:06;;;;;;;;;4.33;4.00;;;;;-147.70;100.00;61350.09;5060975;28;45340;-78
2023/07/17 03:34:32;;;;;;;;;3.00;2.67;;;;;-147.70;100.00;61350.09;5047962;28;45419;-78
2023/07/17 03:36:57;;;;;;;;;5.00;4.67;;;;;-147.70;100.00;61350.09;5040375;28;45396;-75
2023/07/17 03:39:22;;;;;;;;;3.67;3.67;;;;;-147.70;100.00;61350.09;5040550;28;45353;-77
2023/07/17 03:41:48;;;;;;;;;3.00;3.00;;;;;-147.70;100.00;61350.09;5040743;28;45143;-76
2023/07/17 03:44:13;;;;;;;;;4.33;3.00;;;;;-147.70;100.00;61350.09;5040224;28;46091;-77
2023/07/17 03:46:38;;;;;;;;;4.00;4.00;;;;;-147.70;100.00;61350.09;5040178;28;45350;-77
2023/07/17 03:49:04;;;;;;;;;4.25;4.25;;;;;-147.70;100.00;61350.09;5040614;28;45308;-76
2023/07/17 03:51:29;;;;;;;;;3.67;3.00;;;;;-147.70;100.00;61350.09;5040763;28;45451;-77
2023/07/17 03:53:54;;;;;;;;;4.00;3.00;;;;;-147.70;100.00;61350.09;5040077;28;45356;-75
2023/07/17 03:56:20;;;;;;;;;5.00;3.00;;;;;-147.70;100.00;61350.09;5040237;28;45219;-76
2023/07/17 03:58:46;;;;;;;;;4.67;4.00;;;;;-147.70;100.00;61350.09;5040272;28;45229;-76
2023/07/17 04:01:11;;;;;;;;;5.67;4.00;;;;;-147.70;100.00;61350.09;5040250;28;45211;-76
2023/07/17 04:03:37;;;;;;;;;4.00;4.00;;;;;-147.70;100.00;61350.09;5054966;28;45549;-77
2023/07/17 04:06:03;;;;;;;;;7.00;4.67;;;;;-147.70;100.00;61350.09;5060220;28;45319;-75
2023/07/17 04:08:28;;;;;;;;;3.00;3.00;;;;;-147.70;100.00;61350.09;5056655;28;45316;-77
2023/07/17 04:10:53;;;;;;;;;6.67;5.33;;;;;-147.70;100.00;61350.09;5040135;28;45395;-76
2023/07/17 04:13:19;;;;;;;;;10.00;4.00;;;;;-147.70;100.00;61350.09;5039893;28;45622;-77
2023/07/17 04:15:44;;;;;;;;;9.33;6.00;;;;;-147.70;100.00;61350.09;5039829;28;45361;-77
2023/07/17 04:18:09;;;;;;;;;5.67;4.00;;;;;-147.70;100.00;61350.09;5039904;28;45310;-77
2023/07/17 04:20:38;;;;;;;;;6.67;5.33;;;;;-147.70;100.00;61350.09;5040278;28;45334;-75
2023/07/17 04:23:05;;;;;;;;;8.00;4.33;;;;;-147.70;100.00;61350.09;5041135;28;46087;-74
2023/07/17 04:25:30;;;;;;;;;5.00;5.00;;;;;-147.70;100.00;61350.09;5059837;28;45318;-76
2023/07/17 04:27:56;;;;;;;;;3.33;3.33;;;;;-147.70;100.00;61350.09;5046292;28;45635;-75
2023/07/17 04:30:21;;;;;;;;;5.67;4.00;;;;;-147.70;100.00;61350.09;5039910;28;45514;-77
2023/07/17 04:32:47;;;;;;;;;6.67;4.00;;;;;-147.70;100.00;61350.09;5039428;28;46244;-75
2023/07/17 04:35:12;;;;;;;;;5.00;3.67;;;;;-147.70;100.00;61350.09;5042038;28;45336;-78
2023/07/17 04:37:37;;;;;;;;;5.33;4.33;;;;;-147.70;100.00;61350.09;5059462;28;45477;-78
2023/07/17 04:40:05;;;;;;;;;4.00;3.67;;;;;-147.70;100.00;61350.09;5060076;28;45411;-77
2023/07/17 04:42:30;;;;;;;;;7.33;7.33;;;;;-147.70;100.00;61350.09;5059449;28;47338;-77
2023/07/17 04:44:55;;;;;;;;;6.00;5.00;;;;;-147.70;100.00;61350.09;5059752;28;45364;-76
2023/07/17 04:47:21;;;;;;;;;4.67;4.00;;;;;-147.70;100.00;61350.09;5042574;28;45452;-76
2023/07/17 04:49:46;;;;;;;;;4.00;4.00;;;;;-147.70;100.00;61350.09;5039632;28;45317;-77
2023/07/17 04:52:12;;;;;;;;;7.00;4.00;;;;;-147.70;100.00;61350.09;5039415;28;46717;-77
2023/07/17 04:54:37;;;;;;;;;9.33;4.67;;;;;-147.70;100.00;61350.09;5039342;28;45306;-76
2023/07/17 04:57:03;;;;;;;;;7.00;5.00;;;;;-147.70;100.00;61350.09;5039564;28;45352;-76
2023/07/17 04:59:29;;;;;;;;;9.33;5.67;;;;;-147.70;100.00;61350.09;5051090;28;45490;-74
2023/07/17 05:01:54;;;;;;;;;4.67;4.33;;;;;-147.70;100.00;61350.09;5058845;28;46573;-77
2023/07/17 05:04:19;;;;;;;;;9.00;4.00;;;;;-147.70;100.00;61350.09;5059500;28;45237;-74
2023/07/17 05:06:45;;;;;;;;;6.00;5.00;;;;;-147.70;100.00;61350.09;5059274;28;45332;-73
2023/07/17 05:09:10;;;;;;;;;2.00;2.00;;;;;-147.70;100.00;61350.09;5059567;28;45413;-76
2023/07/17 05:11:36;;;;;;;;;6.00;4.00;;;;;-147.70;100.00;61350.09;5058001;28;45464;-77
2023/07/17 05:14:01;;;;;;;;;9.67;8.00;;;;;-147.70;100.00;61350.09;5039366;28;45446;-77
2023/07/17 05:16:27;;;;;;;;;4.67;4.67;;;;;-147.70;100.00;61350.09;5039014;28;45853;-75
2023/07/17 05:18:52;;;;;;;;;7.33;6.00;;;;;-147.70;100.00;61350.09;5048128;28;45452;-76
2023/07/17 05:21:17;;;;;;;;;7.67;5.00;;;;;-147.70;100.00;61350.09;5052665;28;46094;-75
2023/07/17 05:23:43;;;;;;;;;4.00;2.00;;;;;-147.70;100.00;61350.09;5046758;28;45330;-77
2023/07/17 05:26:08;;;;;;;;;9.00;7.00;;;;;-147.70;100.00;61350.09;5058245;28;45319;-75
2023/07/17 05:28:34;;;;;;;;;8.67;8.33;;;;;-147.70;100.00;61350.09;5056439;28;45439;-76
2023/07/17 05:30:59;;;;;;;;;6.00;5.00;;;;;-147.70;100.00;61350.09;5056808;28;46602;-75
2023/07/17 05:33:25;;;;;;;;;10.00;8.67;;;;;-147.70;100.00;61350.09;5058711;28;45347;-77
2023/07/17 05:35:51;;;;;;;;;6.33;5.00;;;;;-147.70;100.00;61350.09;5058681;28;45407;-78
2023/07/17 05:38:16;;;;;;;;;7.00;5.00;;;;;-147.70;100.00;61350.09;5059002;28;45258;-74
2023/07/17 05:40:41;;;;;;;;;7.33;5.00;;;;;-147.70;100.00;61350.09;5058601;28;45645;-78
2023/07/17 05:43:08;;;;;;;;;13.33;11.67;;;;;-147.70;100.00;61350.09;5042465;28;45598;-77
2023/07/17 05:45:33;;;;;;;;;9.67;7.33;;;;;-147.70;100.00;61350.09;5038686;28;45351;-77
2023/07/17 05:47:59;;;;;;;;;9.67;6.33;;;;;-147.70;100.00;61350.09;5037548;28;45848;-80
2023/07/17 05:50:24;;;;;;;;;6.33;5.33;;;;;-147.70;100.00;61350.09;5038749;28;46528;-77
2023/07/17 05:52:50;;;;;;;;;6.67;4.67;;;;;-147.70;100.00;61350.09;5038330;28;45273;-76
2023/07/17 05:55:16;;;;;;;;;6.00;6.00;;;;;-147.70;100.00;61350.09;5038546;28;45423;-77
2023/07/17 05:57:41;;;;;;;;;6.00;5.00;;;;;-147.70;100.00;61350.09;5038560;28;45462;-76
2023/07/17 06:00:10;;;;;;;;;6.33;5.33;;;;;-147.70;100.00;61350.09;5038041;28;47423;-77
2023/07/17 06:02:36;;;;;;;;;5.00;5.00;;;;;-147.70;100.00;61350.09;5057321;28;45566;-78
2023/07/17 06:05:01;;;;;;;;;7.00;6.00;;;;;-147.70;100.00;61350.09;5058495;28;45643;-75
2023/07/17 06:07:26;;;;;;;;;6.67;4.33;;;;;-147.70;100.00;61350.09;5058518;28;45243;-77
2023/07/17 06:09:52;;;;;;;;;6.00;6.00;;;;;-147.70;100.00;61350.09;5058261;28;46336;-75
2023/07/17 06:12:17;;;;;;;;;9.33;6.00;;;;;-147.70;100.00;61350.09;5058160;28;45387;-76
2023/07/17 06:14:42;;;;;;;;;7.67;6.00;;;;;-147.70;100.00;61350.09;5055333;28;45216;-77
2023/07/17 06:17:08;;;;;;;;;10.67;6.33;;;;;-147.70;100.00;61350.09;5037997;28;45342;-75
2023/07/17 06:19:33;;;;;;;;;7.33;6.67;;;;;-147.70;100.00;61350.09;5054607;28;45487;-74
2023/07/17 06:21:58;;;;;;;;;8.00;7.00;;;;;-147.70;100.00;61350.09;5058210;28;45332;-76
2023/07/17 06:24:24;;;;;;;;;5.50;5.50;;;;;-147.70;100.00;61350.09;5045387;28;45487;-77
2023/07/17 06:26:49;;;;;;;;;9.67;7.00;;;;;-147.70;100.00;61350.09;5041420;28;45424;-76
2023/07/17 06:29:14;;;;;;;;;10.67;5.33;;;;;-147.70;100.00;61350.09;5057845;28;45396;-77
2023/07/17 06:31:41;;;;;;;;;5.33;5.33;;;;;-147.70;100.00;61350.09;5054205;28;45540;-77
2023/07/17 06:34:06;;;;;;;;;14.00;9.33;;;;;-147.70;100.00;61350.09;5040328;28;45430;-76
2023/07/17 06:36:31;;;;;;;;;10.67;6.33;;;;;-147.70;100.00;61350.09;5057987;28;45309;-77
2023/07/17 06:38:57;;;;;;;;;8.00;6.00;;;;;-147.70;100.00;61350.09;5056141;28;46485;-77
2023/07/17 06:41:22;;;;;;;;;9.67;8.00;;;;;-147.70;100.00;61350.09;5057692;28;45229;-76
2023/07/17 06:43:47;;;;;;;;;7.00;5.67;;;;;-147.70;100.00;61350.09;5041057;28;45475;-78
2023/07/17 06:46:13;;;;;;;;;9.00;6.00;;;;;-147.70;100.00;61350.09;5052153;28;45411;-77
2023/07/17 06:48:38;;;;;;;;;11.33;7.33;;;;;-147.70;100.00;61350.09;5057347;28;46726;-78
2023/07/17 06:51:04;;;;;;;;;9.67;8.33;;;;;-147.70;100.00;61350.09;5057829;28;45426;-76
2023/07/17 06:53:32;;;;;;;;;6.00;6.00;;;;;-147.70;100.00;61350.09;5046428;28;45339;-78
2023/07/17 06:56:00;;;;;;;;;5.33;3.00;;;;;-147.70;100.00;61350.09;5037594;28;45616;-77
2023/07/17 06:58:25;;;;;;;;;6.50;6.50;;;;;-147.70;100.00;61350.09;5036947;28;47387;-76
2023/07/17 07:00:55;;;;;;;;;7.00;5.67;;;;;-147.70;100.00;61350.09;5046213;28;45159;-77
2023/07/17 07:03:21;;;;;;;;;7.33;5.67;;;;;-147.70;100.00;61350.09;5046025;28;45379;-76
2023/07/17 07:05:57;;;;;;;;;8.33;6.00;;;;;-147.70;100.00;61350.09;5052577;28;45450;-75
2023/07/17 07:08:24;;;;;;;;;4.00;4.00;;;;;-147.70;100.00;61350.09;5057158;28;46950;-76
2023/07/17 07:10:52;;;;;;;;;5.33;5.00;;;;;-147.70;100.00;61350.09;5055602;28;45683;-77
2023/07/17 07:13:17;;;;;;;;;9.67;7.00;;;;;-147.70;100.00;61350.09;5037712;28;45491;-78
2023/07/17 07:15:43;;;;;;;;;9.33;5.67;;;;;-147.70;100.00;61350.09;5037381;28;45397;-78
2023/07/17 07:18:08;;;;;;;;;5.67;4.33;;;;;-147.70;100.00;61350.09;5036929;28;45554;-77
2023/07/17 07:20:34;;;;;;;;;9.00;9.00;;;;;-147.70;100.00;61350.09;5038096;28;45258;-77
2023/07/17 07:22:59;;;;;;;;;6.33;1.33;;;;;-147.70;100.00;61350.09;5037102;28;45408;-77
2023/07/17 07:25:24;;;;;;;;;7.33;7.00;;;;;-147.70;100.00;61350.09;5037633;28;45373;-77
2023/07/17 07:27:49;;;;;;;;;6.67;6.67;;;;;-147.70;100.00;61350.09;5036824;28;46479;-75
2023/07/17 07:30:15;;;;;;;;;6.67;4.33;;;;;-147.70;100.00;61350.09;5038097;28;45346;-77
2023/07/17 07:32:41;;;;;;;;;10.67;5.00;;;;;-147.70;100.00;61350.09;5053412;28;45275;-76
2023/07/17 07:35:07;;;;;;;;;7.00;7.00;;;;;-147.70;100.00;61350.09;5056989;28;45447;-78
2023/07/17 07:37:32;;;;;;;;;9.00;6.00;;;;;-147.70;100.00;61350.09;5056666;28;45286;-79
2023/07/17 07:39:57;;;;;;;;;7.00;4.33;;;;;-147.70;100.00;61350.09;5046629;28;45381;-77
2023/07/17 07:42:23;;;;;;;;;15.00;9.33;;;;;-147.70;100.00;61350.09;5055230;28;45440;-79
2023/07/17 07:44:48;;;;;;;;;7.00;5.67;;;;;-147.70;100.00;61350.09;5056347;28;45506;-77
2023/07/17 07:47:14;;;;;;;;;7.00;5.67;;;;;-147.70;100.00;61350.09;5056630;28;45345;-80
2023/07/17 07:49:39;;;;;;;;;6.00;6.00;;;;;-147.70;100.00;61350.09;5056691;28;45454;-83
2023/07/17 07:52:05;;;;;;;;;5.33;5.33;;;;;-147.70;100.00;61350.09;5046368;28;45253;-83
2023/07/17 07:54:30;;;;;;;;;9.00;6.67;;;;;-147.70;100.00;61350.09;5039636;28;45554;-81
2023/07/17 07:56:56;;;;;;;;;8.67;6.00;;;;;-147.70;100.00;61350.09;5055412;28;46192;-81
2023/07/17 07:59:21;;;;;;;;;7.67;6.00;;;;;-147.70;100.00;61350.09;5039508;28;45363;-82
2023/07/17 08:01:46;;;;;;;;;9.33;7.33;;;;;-147.70;100.00;61350.09;5056885;28;45207;-79
2023/07/17 08:04:11;;;;;;;;;10.33;8.00;;;;;-147.70;100.00;61350.09;5056754;28;45380;-79
2023/07/17 08:06:37;;;;;;;;;6.33;5.33;;;;;-147.70;100.00;61350.09;5037276;28;47992;-71
2023/07/17 08:09:02;;;;;;;;;8.00;6.00;;;;;-147.70;100.00;61350.09;5045460;28;45356;-80
2023/07/17 08:11:28;;;;;;;;;6.67;5.00;;;;;-147.70;100.00;61350.09;5057701;28;45364;-74
2023/07/17 08:13:53;;;;;;;;;7.67;5.33;;;;;-147.70;100.00;61350.09;5050836;28;45315;-79
2023/07/17 08:16:18;;;;;;;;;7.33;7.00;;;;;-147.70;100.00;61350.09;5052874;28;45438;-76
2023/07/17 08:18:46;;;;;;;;;7.00;5.33;;;;;-147.70;100.00;61350.09;5051935;28;45463;-76
2023/07/17 08:21:11;;;;;;;;;6.33;5.67;;;;;-147.70;100.00;61350.09;5039557;28;45691;-79
2023/07/17 08:23:36;;;;;;;;;6.00;4.33;;;;;-147.70;100.00;61350.09;5045619;28;45473;-75
2023/07/17 08:26:02;;;;;;;;;8.67;5.67;;;;;-147.70;100.00;61350.09;5059276;28;46052;-74
2023/07/17 08:28:27;;;;;;;;;9.67;6.33;;;;;-147.70;100.00;61350.09;5058980;28;45377;-69
2023/07/17 08:30:53;;;;;;;;;10.67;6.00;;;;;-147.70;100.00;61350.09;5059744;28;45447;-78
2023/07/17 08:33:19;;;;;;;;;4.33;3.00;;;;;-147.70;100.00;61350.09;5044339;28;45455;-76
2023/07/17 08:35:44;;;;;;;;;7.33;5.33;;;;;-147.70;100.00;61350.09;5039197;28;45628;-77
2023/07/17 08:38:09;;;;;;;;;4.00;3.00;;;;;-147.70;100.00;61350.09;5052574;28;45420;-77
2023/07/17 08:40:39;;;;;;;;;5.00;4.33;;;;;-147.70;100.00;61350.09;5059438;28;45201;-76
2023/07/17 08:43:06;;;;;;;;;6.67;3.33;;;;;-147.70;100.00;61350.09;5051455;28;45469;-77
2023/07/17 08:45:33;;;;;;;;;4.67;3.00;;;;;-147.70;100.00;61350.09;5045846;28;45426;-71
2023/07/17 08:47:59;;;;;;;;;3.00;3.00;;;;;-147.70;100.00;61350.09;5058993;28;45191;-66
2023/07/17 08:50:26;;;;;;;;;5.00;3.00;;;;;-147.70;100.00;61350.09;5050941;28;45527;-68
2023/07/17 08:52:52;;;;;;;;;8.33;5.00;;;;;-147.70;100.00;61350.09;5039283;28;45424;-74
2023/07/17 08:55:17;;;;;;;;;8.00;6.67;;;;;-147.70;100.00;61350.09;5055869;28;46389;-70
2023/07/17 08:57:47;;;;;;;;;5.00;4.67;;;;;-147.70;100.00;61350.09;5047736;28;45350;-70
2023/07/17 09:00:15;;;;;;;;;6.67;3.33;;;;;-147.70;100.00;61350.09;5040719;28;45361;-68
2023/07/17 09:02:42;;;;;;;;;3.67;3.00;;;;;-147.70;100.00;61350.09;5039310;28;45377;-72
2023/07/17 09:05:07;;;;;;;;;7.00;4.00;;;;;-147.70;100.00;61350.09;5044979;28;45446;-77
2023/07/17 09:07:33;;;;;;;;;4.00;4.00;;;;;-147.70;100.00;61350.09;5058753;28;45407;-78
2023/07/17 09:10:19;;;;;;;;;7.33;3.00;;;;;-147.70;100.00;61350.09;5040455;28;45374;-72
2023/07/17 09:12:55;;;;;;;;;9.67;9.33;;;;;-147.70;100.00;61350.09;5039134;28;45344;-75
2023/07/17 09:15:21;;;;;;;;;6.00;4.00;;;;;-147.70;100.00;61350.09;5038400;28;45447;-79
2023/07/17 09:17:46;;;;;;;;;3.67;2.00;;;;;-147.70;100.00;61350.09;5049889;28;45495;-73
2023/07/17 09:20:13;;;;;;;;;3.00;3.00;;;;;-147.70;100.00;61350.09;5056950;28;45262;-71
2023/07/17 09:22:39;;;;;;;;;4.00;4.00;;;;;-147.70;100.00;61350.09;5057392;28;45522;-77
2023/07/17 09:25:05;;;;;;;;;5.00;3.33;;;;;-147.70;100.00;61350.09;5040229;28;46291;-69
2023/07/17 09:27:42;;;;;;;;;5.00;3.00;;;;;-147.70;100.00;61350.09;5038336;28;45461;-76
2023/07/17 09:30:09;;;;;;;;;5.00;4.00;;;;;-147.70;100.00;61350.09;5038209;28;45270;-74
2023/07/17 09:32:34;;;;;;;;;4.00;3.00;;;;;-147.70;100.00;61350.09;5045082;28;45389;-74
2023/07/17 09:35:04;;;;;;;;;6.00;4.00;;;;;-147.70;100.00;61350.09;5050933;28;47030;-73
2023/07/17 09:37:31;;;;;;;;;4.67;2.33;;;;;-147.70;100.00;61350.09;5058129;28;45312;-72
2023/07/17 09:40:07;;;;;;;;;5.00;3.00;;;;;-147.70;100.00;61350.09;5045508;28;45419;-77
2023/07/17 09:42:32;;;;;;;;;12.00;10.33;;;;;-147.70;100.00;61350.09;5038323;28;45250;-75
2023/07/17 09:44:59;;;;;;;;;2.67;2.00;;;;;-147.70;100.00;61350.09;5053726;28;46146;-75
2023/07/17 09:47:26;;;;;;;;;3.67;2.67;;;;;-147.70;100.00;61350.09;5058201;28;45355;-74
2023/07/17 09:49:51;;;;;;;;;2.33;2.33;;;;;-147.70;100.00;61350.09;5057479;28;45412;-74
2023/07/17 09:52:18;;;;;;;;;7.00;3.00;;;;;-147.70;100.00;61350.09;5057279;28;45393;-78
2023/07/17 09:54:45;;;;;;;;;2.67;2.67;;;;;-147.70;100.00;61350.09;5048852;28;45408;-69
2023/07/17 09:57:22;;;;;;;;;3.67;3.67;;;;;-147.70;100.00;61350.09;5037576;28;45312;-75
2023/07/17 09:59:49;;;;;;;;;3.33;3.00;;;;;-147.70;100.00;61350.09;5037911;28;45400;-68
2023/07/17 10:02:18;;;;;;;;;3.33;2.33;;;;;-147.70;100.00;61350.09;5038014;28;45397;-71
2023/07/17 10:04:50;;;;;;;;;5.00;3.67;;;;;-147.70;100.00;61350.09;5043157;28;46366;-71
2023/07/17 10:07:18;;;;;;;;;10.00;6.00;;;;;-147.70;100.00;61350.09;5048831;28;45324;-73
2023/07/17 10:09:47;;;;;;;;;2.33;2.00;;;;;-147.70;100.00;61350.09;5057520;28;45427;-70
2023/07/17 10:12:13;;;;;;;;;2.00;2.00;;;;;-147.70;100.00;61350.09;5057854;28;45379;-81
2023/07/17 10:14:39;;;;;;;;;7.33;7.00;;;;;-147.70;100.00;61350.09;5053421;28;46097;-76
2023/07/17 10:17:21;;;;;;;;;7.33;7.00;;;;;-147.70;100.00;61350.09;5040155;28;45363;-76
2023/07/17 10:19:49;;;;;;;;;7.00;4.00;;;;;-147.70;100.00;61350.09;5037311;28;45336;-67
2023/07/17 10:22:14;;;;;;;;;2.33;2.33;;;;;-147.70;100.00;61350.09;5037196;28;45421;-70
2023/07/17 10:24:40;;;;;;;;;2.33;1.67;;;;;-147.70;100.00;61350.09;5036797;28;47008;-67
2023/07/17 10:27:06;;;;;;;;;2.33;1.00;;;;;-147.70;100.00;61350.09;5037463;28;45439;-68
2023/07/17 10:29:46;;;;;;;;;3.33;1.67;;;;;-147.70;100.00;61350.09;5041937;28;45368;-68
2023/07/17 10:32:14;;;;;;;;;2.00;2.00;;;;;-147.70;100.00;61350.09;5043325;28;45673;-80
2023/07/17 10:34:53;;;;;;;;;1.00;1.00;;;;;-147.70;100.00;61350.09;5049287;28;45465;-69
2023/07/17 10:37:24;;;;;;;;;0.33;0.33;;;;;-147.70;100.00;61350.09;5048827;28;45293;-71
2023/07/17 10:39:50;;;;;;;;;2.67;1.67;;;;;-147.70;100.00;61350.09;5037472;28;45448;-71
2023/07/17 10:42:15;;;;;;;;;2.33;2.33;;;;;-147.70;100.00;61350.09;5037876;28;45466;-72
2023/07/17 10:44:40;;;;;;;;;3.67;2.00;;;;;-147.70;100.00;61350.09;5046316;28;46949;-76
2023/07/17 10:47:06;;;;;;;;;3.00;1.67;;;;;-147.70;100.00;61350.09;5037441;28;45346;-76
2023/07/17 10:49:31;;;;;;;;;3.00;1.67;;;;;-147.70;100.00;61350.09;5052701;28;46277;-77
2023/07/17 10:51:56;;;;;;;;;3.67;2.00;;;;;-147.70;100.00;61350.09;5057534;28;45339;-74
2023/07/17 10:54:24;;;;;;;;;2.67;1.00;;;;;-147.70;100.00;61350.09;5049461;28;46719;-72
2023/07/17 10:56:50;;;;;;;;;2.67;2.67;;;;;-147.70;100.00;61350.09;5040457;28;45453;-75
2023/07/17 10:59:17;;;;;;;;;3.00;1.00;;;;;-147.70;100.00;61350.09;5037151;28;45451;-73
2023/07/17 11:01:43;;;;;;;;;1.33;1.00;;;;;-147.70;100.00;61350.09;5037201;28;45235;-73
2023/07/17 11:04:08;;;;;;;;;0.00;0.00;;;;;-147.70;100.00;61350.09;5046134;28;45496;-78